Rodney Mitchell — WCV8372 — position and weather

sailwx.info

Track history (hours):
 
Tides and Currents Weather Stations Pressure Air Temp Water Temp Dewpoint Dewpoint Depression Visibility Wind Speed Wind Dir Waves Ship Positions

Rodney Mitchell

Owner: VINTON CROSBY INC, GOLDEN MEADOW, LA. More information available from US FCC via Universal Licensing System and Coast Guard Vessel Documentation Center.

Last reported at 2015-Jan-30 17:32 UTC. Time now 2015-Jan-30 18:32 UTC.
Position N 29°29' W 094°52'.

; draft 3 m.

Type: Towing. MMSI: 367028860.

Date/timePositionNaut miles runAvg speedWind from/ knotsBaromVisibWave heightAir tempDewpointWater temp
2015-Jan-30 17:32N 29°29' W 094°52'5 5.3
2015-Jan-30 16:33N 29°34' W 094°55'6 5.6
2015-Jan-30 15:34N 29°38' W 094°58'6 5.7
2015-Jan-30 14:33N 29°43' W 095°01'5 4.8
2015-Jan-30 13:33N 29°46' W 095°06'0 0.2
2015-Jan-30 12:33N 29°46' W 095°06'0 0.0
2015-Jan-30 11:33N 29°46' W 095°06'0 0.0
2015-Jan-30 10:33N 29°46' W 095°06'0 0.0
2015-Jan-30 09:33N 29°46' W 095°06'0 0.0
2015-Jan-30 08:33N 29°46' W 095°06'0 0.0
2015-Jan-30 07:33N 29°46' W 095°06'0 0.0
2015-Jan-30 06:34N 29°46' W 095°06'0 0.0
2015-Jan-30 05:33N 29°46' W 095°06'0 0.0
2015-Jan-30 04:33N 29°46' W 095°06'0 0.0
2015-Jan-30 03:33N 29°46' W 095°06'2 2.4
2015-Jan-30 02:33N 29°48' W 095°04'2 2.1
2015-Jan-30 01:33N 29°46' W 095°05'1 0.7
2015-Jan-30 00:33N 29°46' W 095°06'4 3.5
2015-Jan-29 23:33N 29°45' W 095°10'4 4.5
2015-Jan-29 22:33N 29°43' W 095°15'0 0.0
2015-Jan-29 21:33N 29°43' W 095°15'0 0.0
2015-Jan-29 20:34N 29°43' W 095°15'0 0.0
2015-Jan-29 19:33N 29°43' W 095°15'0 0.0
2015-Jan-29 18:33N 29°43' W 095°15'0 0.0
2015-Jan-29 17:33N 29°43' W 095°15'0 0.0
2015-Jan-29 16:33N 29°43' W 095°15'0 0.0
2015-Jan-29 15:33N 29°43' W 095°15'0 0.0
2015-Jan-29 14:33N 29°43' W 095°15'0 0.0
2015-Jan-29 13:33N 29°43' W 095°15'0 0.0
2015-Jan-29 12:33N 29°43' W 095°15'0 0.0
2015-Jan-29 11:33N 29°43' W 095°15'0 0.0
2015-Jan-29 10:33N 29°43' W 095°15'0 0.0
2015-Jan-29 09:33N 29°43' W 095°15'0 0.0
2015-Jan-29 08:33N 29°43' W 095°15'0 0.0
2015-Jan-29 07:33N 29°43' W 095°15'0 0.0
2015-Jan-29 06:33N 29°43' W 095°15'0 0.0
2015-Jan-29 05:33N 29°43' W 095°15'0 0.0
2015-Jan-29 04:33N 29°43' W 095°15'0 0.0
2015-Jan-29 03:33N 29°43' W 095°15'0 0.0
2015-Jan-29 02:33N 29°43' W 095°15'0 0.0
2015-Jan-29 01:33N 29°43' W 095°15'0 0.0
2015-Jan-29 00:33N 29°43' W 095°15'4 4.4
2015-Jan-28 23:33N 29°45' W 095°10'4 3.5
2015-Jan-28 22:34N 29°46' W 095°06'1 0.9
2015-Jan-28 21:33N 29°46' W 095°06'0 0.3
2015-Jan-28 20:33N 29°47' W 095°06'0 0.0
2015-Jan-28 19:33N 29°47' W 095°06'0 0.0
2015-Jan-28 18:33N 29°47' W 095°06'0 0.5
2015-Jan-28 17:33N 29°46' W 095°06'1 0.6
2015-Jan-28 16:33N 29°46' W 095°06'828827.5
2015-Jan-28 15:33N 29°42' W 110°59'837837.0
2015-Jan-28 14:33N 29°41' W 094°56'2 2.1
2015-Jan-28 13:32N 29°43' W 094°56'1 1.5
2015-Jan-28 12:33N 29°44' W 094°56'1 1.5
2015-Jan-28 11:33N 29°43' W 094°56'1 1.2
2015-Jan-28 10:28N 29°42' W 094°55'2 1.9
2015-Jan-28 09:32N 29°40' W 094°56'2 2.2
2015-Jan-28 08:33N 29°40' W 094°58'6 6.3
2015-Jan-28 07:33N 29°34' W 094°55'7 6.4
2015-Jan-28 06:29N 29°29' W 094°51'  
Track history (hours):
 
Tides and Currents Weather Stations Pressure Air Temp Water Temp Dewpoint Dewpoint Depression Visibility Wind Speed Wind Dir Waves Ship Positions

Rodney Mitchell

Owner: VINTON CROSBY INC, GOLDEN MEADOW, LA. More information available from US FCC via Universal Licensing System and Coast Guard Vessel Documentation Center.

Last reported at 2015-Jan-30 17:32 UTC. Time now 2015-Jan-30 18:32 UTC.
Position N 29°29' W 094°52'.

; draft 3 m.

Type: Towing. MMSI: 367028860.

Date/timePositionNaut miles runAvg speedWind from/ knotsBaromVisibWave heightAir tempDewpointWater temp
2015-Jan-30 17:32N 29°29' W 094°52'5 5.3
2015-Jan-30 16:33N 29°34' W 094°55'6 5.6
2015-Jan-30 15:34N 29°38' W 094°58'6 5.7
2015-Jan-30 14:33N 29°43' W 095°01'5 4.8
2015-Jan-30 13:33N 29°46' W 095°06'0 0.2
2015-Jan-30 12:33N 29°46' W 095°06'0 0.0
2015-Jan-30 11:33N 29°46' W 095°06'0 0.0
2015-Jan-30 10:33N 29°46' W 095°06'0 0.0
2015-Jan-30 09:33N 29°46' W 095°06'0 0.0
2015-Jan-30 08:33N 29°46' W 095°06'0 0.0
2015-Jan-30 07:33N 29°46' W 095°06'0 0.0
2015-Jan-30 06:34N 29°46' W 095°06'0 0.0
2015-Jan-30 05:33N 29°46' W 095°06'0 0.0
2015-Jan-30 04:33N 29°46' W 095°06'0 0.0
2015-Jan-30 03:33N 29°46' W 095°06'2 2.4
2015-Jan-30 02:33N 29°48' W 095°04'2 2.1
2015-Jan-30 01:33N 29°46' W 095°05'1 0.7
2015-Jan-30 00:33N 29°46' W 095°06'4 3.5
2015-Jan-29 23:33N 29°45' W 095°10'4 4.5
2015-Jan-29 22:33N 29°43' W 095°15'0 0.0
2015-Jan-29 21:33N 29°43' W 095°15'0 0.0
2015-Jan-29 20:34N 29°43' W 095°15'0 0.0
2015-Jan-29 19:33N 29°43' W 095°15'0 0.0
2015-Jan-29 18:33N 29°43' W 095°15'0 0.0
2015-Jan-29 17:33N 29°43' W 095°15'0 0.0
2015-Jan-29 16:33N 29°43' W 095°15'0 0.0
2015-Jan-29 15:33N 29°43' W 095°15'0 0.0
2015-Jan-29 14:33N 29°43' W 095°15'0 0.0
2015-Jan-29 13:33N 29°43' W 095°15'0 0.0
2015-Jan-29 12:33N 29°43' W 095°15'0 0.0
2015-Jan-29 11:33N 29°43' W 095°15'0 0.0
2015-Jan-29 10:33N 29°43' W 095°15'0 0.0
2015-Jan-29 09:33N 29°43' W 095°15'0 0.0
2015-Jan-29 08:33N 29°43' W 095°15'0 0.0
2015-Jan-29 07:33N 29°43' W 095°15'0 0.0
2015-Jan-29 06:33N 29°43' W 095°15'0 0.0
2015-Jan-29 05:33N 29°43' W 095°15'0 0.0
2015-Jan-29 04:33N 29°43' W 095°15'0 0.0
2015-Jan-29 03:33N 29°43' W 095°15'0 0.0
2015-Jan-29 02:33N 29°43' W 095°15'0 0.0
2015-Jan-29 01:33N 29°43' W 095°15'0 0.0
2015-Jan-29 00:33N 29°43' W 095°15'4 4.4
2015-Jan-28 23:33N 29°45' W 095°10'4 3.5
2015-Jan-28 22:34N 29°46' W 095°06'1 0.9
2015-Jan-28 21:33N 29°46' W 095°06'0 0.3
2015-Jan-28 20:33N 29°47' W 095°06'0 0.0
2015-Jan-28 19:33N 29°47' W 095°06'0 0.0
2015-Jan-28 18:33N 29°47' W 095°06'0 0.5
2015-Jan-28 17:33N 29°46' W 095°06'1 0.6
2015-Jan-28 16:33N 29°46' W 095°06'828827.5
2015-Jan-28 15:33N 29°42' W 110°59'837837.0
2015-Jan-28 14:33N 29°41' W 094°56'2 2.1
2015-Jan-28 13:32N 29°43' W 094°56'1 1.5
2015-Jan-28 12:33N 29°44' W 094°56'1 1.5
2015-Jan-28 11:33N 29°43' W 094°56'1 1.2
2015-Jan-28 10:28N 29°42' W 094°55'2 1.9
2015-Jan-28 09:32N 29°40' W 094°56'2 2.2
2015-Jan-28 08:33N 29°40' W 094°58'6 6.3
2015-Jan-28 07:33N 29°34' W 094°55'7 6.4
2015-Jan-28 06:29N 29°29' W 094°51'  

Dump ship's entire track history